sensor_id;sensor_type;location;lat;lon;timestamp;P1;durP1;ratioP1;P2;durP2;ratioP2
29236;SDS011;16266;50.866;4.398;2024-01-15T00:01:29;1999.90;;;999.90;;
29236;SDS011;16266;50.866;4.398;2024-01-15T00:03:55;1999.90;;;999.90;;
29236;SDS011;16266;50.866;4.398;2024-01-15T00:06:20;1999.90;;;999.90;;
29236;SDS011;16266;50.866;4.398;2024-01-15T00:08:46;1999.90;;;999.90;;
29236;SDS011;16266;50.866;4.398;2024-01-15T00:11:12;1508.57;;;758.17;;
29236;SDS011;16266;50.866;4.398;2024-01-15T00:13:38;1508.72;;;758.28;;
29236;SDS011;16266;50.866;4.398;2024-01-15T00:16:04;1999.90;;;999.90;;
29236;SDS011;16266;50.866;4.398;2024-01-15T00:18:30;28.33;;;26.95;;
29236;SDS011;16266;50.866;4.398;2024-01-15T00:20:56;27.48;;;26.33;;
29236;SDS011;16266;50.866;4.398;2024-01-15T00:23:22;31.25;;;29.83;;
29236;SDS011;16266;50.866;4.398;2024-01-15T00:25:48;30.35;;;28.55;;
29236;SDS011;16266;50.866;4.398;2024-01-15T00:28:13;29.48;;;28.27;;
29236;SDS011;16266;50.866;4.398;2024-01-15T00:30:39;28.70;;;27.27;;
29236;SDS011;16266;50.866;4.398;2024-01-15T00:33:04;29.90;;;28.55;;
29236;SDS011;16266;50.866;4.398;2024-01-15T00:35:30;1999.90;;;999.90;;
29236;SDS011;16266;50.866;4.398;2024-01-15T00:37:56;1999.90;;;999.90;;
29236;SDS011;16266;50.866;4.398;2024-01-15T00:40:21;1999.90;;;999.90;;
29236;SDS011;16266;50.866;4.398;2024-01-15T00:42:47;1999.90;;;999.90;;
29236;SDS011;16266;50.866;4.398;2024-01-15T00:45:13;1999.90;;;999.90;;
29236;SDS011;16266;50.866;4.398;2024-01-15T00:47:38;1999.90;;;999.90;;
29236;SDS011;16266;50.866;4.398;2024-01-15T00:50:04;1999.90;;;999.90;;
29236;SDS011;16266;50.866;4.398;2024-01-15T00:52:30;1999.90;;;999.90;;
29236;SDS011;16266;50.866;4.398;2024-01-15T00:54:57;1999.90;;;999.90;;
29236;SDS011;16266;50.866;4.398;2024-01-15T00:57:22;1999.90;;;999.90;;
29236;SDS011;16266;50.866;4.398;2024-01-15T00:59:48;1999.90;;;999.90;;
29236;SDS011;16266;50.866;4.398;2024-01-15T01:02:14;1999.90;;;999.90;;
29236;SDS011;16266;50.866;4.398;2024-01-15T01:04:40;1999.90;;;999.90;;
29236;SDS011;16266;50.866;4.398;2024-01-15T01:07:05;1999.90;;;999.90;;
29236;SDS011;16266;50.866;4.398;2024-01-15T01:09:31;1999.90;;;999.90;;
29236;SDS011;16266;50.866;4.398;2024-01-15T01:11:57;1999.90;;;999.90;;
29236;SDS011;16266;50.866;4.398;2024-01-15T01:14:22;1511.18;;;760.72;;
29236;SDS011;16266;50.866;4.398;2024-01-15T01:16:48;45.20;;;43.40;;
29236;SDS011;16266;50.866;4.398;2024-01-15T01:19:14;41.97;;;40.10;;
29236;SDS011;16266;50.866;4.398;2024-01-15T01:21:40;37.20;;;35.63;;
29236;SDS011;16266;50.866;4.398;2024-01-15T01:24:06;33.40;;;32.15;;
29236;SDS011;16266;50.866;4.398;2024-01-15T01:26:31;29.58;;;28.45;;
29236;SDS011;16266;50.866;4.398;2024-01-15T01:28:57;28.25;;;27.23;;
29236;SDS011;16266;50.866;4.398;2024-01-15T01:31:23;31.45;;;30.25;;
29236;SDS011;16266;50.866;4.398;2024-01-15T01:33:49;32.50;;;31.15;;
29236;SDS011;16266;50.866;4.398;2024-01-15T01:36:14;43.33;;;41.63;;
29236;SDS011;16266;50.866;4.398;2024-01-15T01:38:40;53.33;;;51.22;;
29236;SDS011;16266;50.866;4.398;2024-01-15T01:41:06;52.63;;;50.55;;
29236;SDS011;16266;50.866;4.398;2024-01-15T01:43:32;50.28;;;48.08;;
29236;SDS011;16266;50.866;4.398;2024-01-15T01:45:59;49.05;;;46.95;;
29236;SDS011;16266;50.866;4.398;2024-01-15T01:48:26;53.55;;;51.45;;
29236;SDS011;16266;50.866;4.398;2024-01-15T01:50:57;1514.07;;;763.50;;
29236;SDS011;16266;50.866;4.398;2024-01-15T01:53:24;1515.22;;;764.63;;
29236;SDS011;16266;50.866;4.398;2024-01-15T01:55:51;50.15;;;47.95;;
29236;SDS011;16266;50.866;4.398;2024-01-15T01:58:18;48.00;;;46.20;;
29236;SDS011;16266;50.866;4.398;2024-01-15T02:00:45;49.75;;;47.55;;
29236;SDS011;16266;50.866;4.398;2024-01-15T02:03:12;49.95;;;47.95;;
29236;SDS011;16266;50.866;4.398;2024-01-15T02:05:38;52.85;;;50.75;;
29236;SDS011;16266;50.866;4.398;2024-01-15T02:08:05;1999.90;;;999.90;;
29236;SDS011;16266;50.866;4.398;2024-01-15T02:10:31;1999.90;;;999.90;;
29236;SDS011;16266;50.866;4.398;2024-01-15T02:12:57;1999.90;;;999.90;;
29236;SDS011;16266;50.866;4.398;2024-01-15T02:15:23;1999.90;;;999.90;;
29236;SDS011;16266;50.866;4.398;2024-01-15T02:18:02;1999.90;;;999.90;;
29236;SDS011;16266;50.866;4.398;2024-01-15T02:20:29;1999.90;;;999.90;;
29236;SDS011;16266;50.866;4.398;2024-01-15T02:25:33;1999.90;;;999.90;;
29236;SDS011;16266;50.866;4.398;2024-01-15T02:27:59;1512.30;;;761.67;;
29236;SDS011;16266;50.866;4.398;2024-01-15T02:30:25;54.55;;;52.47;;
29236;SDS011;16266;50.866;4.398;2024-01-15T02:32:52;55.90;;;53.70;;
29236;SDS011;16266;50.866;4.398;2024-01-15T02:35:18;61.65;;;58.95;;
29236;SDS011;16266;50.866;4.398;2024-01-15T02:37:43;61.08;;;58.67;;
29236;SDS011;16266;50.866;4.398;2024-01-15T02:40:09;61.28;;;58.83;;
29236;SDS011;16266;50.866;4.398;2024-01-15T02:42:36;58.63;;;56.38;;
29236;SDS011;16266;50.866;4.398;2024-01-15T02:45:02;59.00;;;56.58;;
29236;SDS011;16266;50.866;4.398;2024-01-15T02:47:29;57.35;;;55.22;;
29236;SDS011;16266;50.866;4.398;2024-01-15T02:49:54;59.50;;;56.80;;
29236;SDS011;16266;50.866;4.398;2024-01-15T02:52:20;63.63;;;61.10;;
29236;SDS011;16266;50.866;4.398;2024-01-15T02:54:45;60.47;;;57.78;;
29236;SDS011;16266;50.866;4.398;2024-01-15T02:57:11;58.35;;;56.15;;
29236;SDS011;16266;50.866;4.398;2024-01-15T02:59:37;52.03;;;49.92;;
29236;SDS011;16266;50.866;4.398;2024-01-15T03:02:02;53.60;;;51.42;;
29236;SDS011;16266;50.866;4.398;2024-01-15T03:04:28;63.92;;;60.58;;
29236;SDS011;16266;50.866;4.398;2024-01-15T03:06:54;59.30;;;56.80;;
29236;SDS011;16266;50.866;4.398;2024-01-15T03:09:19;1999.90;;;999.90;;
29236;SDS011;16266;50.866;4.398;2024-01-15T03:11:45;1999.90;;;999.90;;
29236;SDS011;16266;50.866;4.398;2024-01-15T03:14:11;1999.90;;;999.90;;
29236;SDS011;16266;50.866;4.398;2024-01-15T03:16:36;1999.90;;;999.90;;
29236;SDS011;16266;50.866;4.398;2024-01-15T03:19:02;1999.90;;;999.90;;
29236;SDS011;16266;50.866;4.398;2024-01-15T03:21:29;1999.90;;;999.90;;
29236;SDS011;16266;50.866;4.398;2024-01-15T03:23:54;1999.90;;;999.90;;
29236;SDS011;16266;50.866;4.398;2024-01-15T03:26:20;1999.90;;;999.90;;
29236;SDS011;16266;50.866;4.398;2024-01-15T03:28:47;1999.90;;;999.90;;
29236;SDS011;16266;50.866;4.398;2024-01-15T03:31:12;1999.90;;;999.90;;
29236;SDS011;16266;50.866;4.398;2024-01-15T03:33:38;1515.22;;;764.60;;
29236;SDS011;16266;50.866;4.398;2024-01-15T03:36:03;1515.65;;;765.03;;
29236;SDS011;16266;50.866;4.398;2024-01-15T03:38:29;65.45;;;62.78;;
29236;SDS011;16266;50.866;4.398;2024-01-15T03:40:56;61.92;;;59.35;;
29236;SDS011;16266;50.866;4.398;2024-01-15T03:43:22;57.50;;;55.13;;
29236;SDS011;16266;50.866;4.398;2024-01-15T03:45:48;1999.90;;;999.90;;
29236;SDS011;16266;50.866;4.398;2024-01-15T03:48:13;1999.90;;;999.90;;
29236;SDS011;16266;50.866;4.398;2024-01-15T03:50:39;1999.90;;;999.90;;
29236;SDS011;16266;50.866;4.398;2024-01-15T03:53:05;1999.90;;;999.90;;
29236;SDS011;16266;50.866;4.398;2024-01-15T03:55:30;1999.90;;;999.90;;
29236;SDS011;16266;50.866;4.398;2024-01-15T03:57:57;1999.90;;;999.90;;
29236;SDS011;16266;50.866;4.398;2024-01-15T04:00:23;1999.90;;;999.90;;
29236;SDS011;16266;50.866;4.398;2024-01-15T04:02:48;1999.90;;;999.90;;
29236;SDS011;16266;50.866;4.398;2024-01-15T04:05:14;1999.90;;;999.90;;
29236;SDS011;16266;50.866;4.398;2024-01-15T04:07:40;1999.90;;;999.90;;
29236;SDS011;16266;50.866;4.398;2024-01-15T04:10:06;1999.90;;;999.90;;
29236;SDS011;16266;50.866;4.398;2024-01-15T04:12:32;1999.90;;;999.90;;
29236;SDS011;16266;50.866;4.398;2024-01-15T04:14:58;1999.90;;;999.90;;
29236;SDS011;16266;50.866;4.398;2024-01-15T04:17:24;1999.90;;;999.90;;
29236;SDS011;16266;50.866;4.398;2024-01-15T04:19:50;1999.90;;;999.90;;
29236;SDS011;16266;50.866;4.398;2024-01-15T04:22:16;1999.90;;;999.90;;
29236;SDS011;16266;50.866;4.398;2024-01-15T04:24:41;1999.90;;;999.90;;
29236;SDS011;16266;50.866;4.398;2024-01-15T04:27:07;1999.90;;;999.90;;
29236;SDS011;16266;50.866;4.398;2024-01-15T04:29:33;1999.90;;;999.90;;
29236;SDS011;16266;50.866;4.398;2024-01-15T04:31:58;1999.90;;;999.90;;
29236;SDS011;16266;50.866;4.398;2024-01-15T04:34:24;1999.90;;;999.90;;
29236;SDS011;16266;50.866;4.398;2024-01-15T04:36:50;1999.90;;;999.90;;
29236;SDS011;16266;50.866;4.398;2024-01-15T04:39:15;1999.90;;;999.90;;
29236;SDS011;16266;50.866;4.398;2024-01-15T04:41:41;1999.90;;;999.90;;
29236;SDS011;16266;50.866;4.398;2024-01-15T04:44:06;1999.90;;;999.90;;
29236;SDS011;16266;50.866;4.398;2024-01-15T04:46:32;1999.90;;;999.90;;
29236;SDS011;16266;50.866;4.398;2024-01-15T04:48:58;1999.90;;;999.90;;
29236;SDS011;16266;50.866;4.398;2024-01-15T04:51:24;1999.90;;;999.90;;
29236;SDS011;16266;50.866;4.398;2024-01-15T04:53:49;1999.90;;;999.90;;
29236;SDS011;16266;50.866;4.398;2024-01-15T04:56:15;1999.90;;;999.90;;
29236;SDS011;16266;50.866;4.398;2024-01-15T04:58:40;1999.90;;;999.90;;
29236;SDS011;16266;50.866;4.398;2024-01-15T05:01:07;1999.90;;;999.90;;
29236;SDS011;16266;50.866;4.398;2024-01-15T05:03:33;1999.90;;;999.90;;
29236;SDS011;16266;50.866;4.398;2024-01-15T05:05:59;1999.90;;;999.90;;
29236;SDS011;16266;50.866;4.398;2024-01-15T05:08:24;1999.90;;;999.90;;
29236;SDS011;16266;50.866;4.398;2024-01-15T05:10:50;1999.90;;;999.90;;
29236;SDS011;16266;50.866;4.398;2024-01-15T05:13:16;1999.90;;;999.90;;
29236;SDS011;16266;50.866;4.398;2024-01-15T05:15:41;1999.90;;;999.90;;
29236;SDS011;16266;50.866;4.398;2024-01-15T05:18:07;1999.90;;;999.90;;
29236;SDS011;16266;50.866;4.398;2024-01-15T05:20:33;1999.90;;;999.90;;
29236;SDS011;16266;50.866;4.398;2024-01-15T05:22:59;1999.90;;;999.90;;
29236;SDS011;16266;50.866;4.398;2024-01-15T05:25:25;1999.90;;;999.90;;
29236;SDS011;16266;50.866;4.398;2024-01-15T05:27:51;1999.90;;;999.90;;
29236;SDS011;16266;50.866;4.398;2024-01-15T05:30:17;1999.90;;;999.90;;
29236;SDS011;16266;50.866;4.398;2024-01-15T05:32:42;1999.90;;;999.90;;
29236;SDS011;16266;50.866;4.398;2024-01-15T05:35:08;1999.90;;;999.90;;
29236;SDS011;16266;50.866;4.398;2024-01-15T05:37:34;1999.90;;;999.90;;
29236;SDS011;16266;50.866;4.398;2024-01-15T05:39:59;1999.90;;;999.90;;
29236;SDS011;16266;50.866;4.398;2024-01-15T05:42:25;1999.90;;;999.90;;
29236;SDS011;16266;50.866;4.398;2024-01-15T05:44:51;1999.90;;;999.90;;
29236;SDS011;16266;50.866;4.398;2024-01-15T05:47:17;1999.90;;;999.90;;
29236;SDS011;16266;50.866;4.398;2024-01-15T05:49:43;1999.90;;;999.90;;
29236;SDS011;16266;50.866;4.398;2024-01-15T05:52:09;1999.90;;;999.90;;
29236;SDS011;16266;50.866;4.398;2024-01-15T05:54:34;1999.90;;;999.90;;
29236;SDS011;16266;50.866;4.398;2024-01-15T05:57:00;1999.90;;;999.90;;
29236;SDS011;16266;50.866;4.398;2024-01-15T05:59:26;1999.90;;;999.90;;
29236;SDS011;16266;50.866;4.398;2024-01-15T06:01:52;1999.90;;;999.90;;
29236;SDS011;16266;50.866;4.398;2024-01-15T06:04:18;1999.90;;;999.90;;
29236;SDS011;16266;50.866;4.398;2024-01-15T06:06:44;1999.90;;;999.90;;
29236;SDS011;16266;50.866;4.398;2024-01-15T06:09:09;1999.90;;;999.90;;
29236;SDS011;16266;50.866;4.398;2024-01-15T06:11:35;1999.90;;;999.90;;
29236;SDS011;16266;50.866;4.398;2024-01-15T06:14:00;1999.90;;;999.90;;
29236;SDS011;16266;50.866;4.398;2024-01-15T06:16:28;1999.90;;;999.90;;
29236;SDS011;16266;50.866;4.398;2024-01-15T06:18:54;1999.90;;;999.90;;
29236;SDS011;16266;50.866;4.398;2024-01-15T06:21:20;1999.90;;;999.90;;
29236;SDS011;16266;50.866;4.398;2024-01-15T06:23:45;1999.90;;;999.90;;
29236;SDS011;16266;50.866;4.398;2024-01-15T06:26:12;1999.90;;;999.90;;
29236;SDS011;16266;50.866;4.398;2024-01-15T06:28:38;1999.90;;;999.90;;
29236;SDS011;16266;50.866;4.398;2024-01-15T06:31:03;1999.90;;;999.90;;
29236;SDS011;16266;50.866;4.398;2024-01-15T06:33:31;1999.90;;;999.90;;
29236;SDS011;16266;50.866;4.398;2024-01-15T06:35:56;1999.90;;;999.90;;
29236;SDS011;16266;50.866;4.398;2024-01-15T06:38:22;1999.90;;;999.90;;
29236;SDS011;16266;50.866;4.398;2024-01-15T06:40:48;1999.90;;;999.90;;
29236;SDS011;16266;50.866;4.398;2024-01-15T06:43:14;1999.90;;;999.90;;
29236;SDS011;16266;50.866;4.398;2024-01-15T06:45:41;1999.90;;;999.90;;
29236;SDS011;16266;50.866;4.398;2024-01-15T06:48:07;1999.90;;;999.90;;
29236;SDS011;16266;50.866;4.398;2024-01-15T06:50:32;1999.90;;;999.90;;
29236;SDS011;16266;50.866;4.398;2024-01-15T06:52:58;1999.90;;;999.90;;
29236;SDS011;16266;50.866;4.398;2024-01-15T06:55:24;1999.90;;;999.90;;
29236;SDS011;16266;50.866;4.398;2024-01-15T06:57:51;1999.90;;;999.90;;
29236;SDS011;16266;50.866;4.398;2024-01-15T07:00:17;1999.90;;;999.90;;
29236;SDS011;16266;50.866;4.398;2024-01-15T07:02:44;1999.90;;;999.90;;
29236;SDS011;16266;50.866;4.398;2024-01-15T07:05:10;1999.90;;;999.90;;
29236;SDS011;16266;50.866;4.398;2024-01-15T07:07:36;1999.90;;;999.90;;
29236;SDS011;16266;50.866;4.398;2024-01-15T07:10:02;1999.90;;;999.90;;
29236;SDS011;16266;50.866;4.398;2024-01-15T07:12:29;1999.90;;;999.90;;
29236;SDS011;16266;50.866;4.398;2024-01-15T07:14:55;1999.90;;;999.90;;
29236;SDS011;16266;50.866;4.398;2024-01-15T07:17:21;1999.90;;;999.90;;
29236;SDS011;16266;50.866;4.398;2024-01-15T07:19:47;1999.90;;;999.90;;
29236;SDS011;16266;50.866;4.398;2024-01-15T07:22:13;1999.90;;;999.90;;
29236;SDS011;16266;50.866;4.398;2024-01-15T07:24:42;1999.90;;;999.90;;
29236;SDS011;16266;50.866;4.398;2024-01-15T07:27:09;1999.90;;;999.90;;
29236;SDS011;16266;50.866;4.398;2024-01-15T07:29:34;1999.90;;;999.90;;
29236;SDS011;16266;50.866;4.398;2024-01-15T07:32:03;1999.90;;;999.90;;
29236;SDS011;16266;50.866;4.398;2024-01-15T07:34:30;1999.90;;;999.90;;
29236;SDS011;16266;50.866;4.398;2024-01-15T07:36:56;1999.90;;;999.90;;
29236;SDS011;16266;50.866;4.398;2024-01-15T07:39:22;1999.90;;;999.90;;
29236;SDS011;16266;50.866;4.398;2024-01-15T07:41:50;1999.90;;;999.90;;
29236;SDS011;16266;50.866;4.398;2024-01-15T07:44:16;1999.90;;;999.90;;
29236;SDS011;16266;50.866;4.398;2024-01-15T07:46:45;1999.90;;;999.90;;
29236;SDS011;16266;50.866;4.398;2024-01-15T07:49:12;1999.90;;;999.90;;
29236;SDS011;16266;50.866;4.398;2024-01-15T07:51:37;1999.90;;;999.90;;
29236;SDS011;16266;50.866;4.398;2024-01-15T07:54:05;1999.90;;;999.90;;
29236;SDS011;16266;50.866;4.398;2024-01-15T07:56:31;1999.90;;;999.90;;
29236;SDS011;16266;50.866;4.398;2024-01-15T07:58:57;1999.90;;;999.90;;
29236;SDS011;16266;50.866;4.398;2024-01-15T08:01:22;1999.90;;;999.90;;
29236;SDS011;16266;50.866;4.398;2024-01-15T08:03:48;1999.90;;;999.90;;
29236;SDS011;16266;50.866;4.398;2024-01-15T08:06:14;1999.90;;;999.90;;
29236;SDS011;16266;50.866;4.398;2024-01-15T08:08:40;1999.90;;;999.90;;
29236;SDS011;16266;50.866;4.398;2024-01-15T08:11:06;1999.90;;;999.90;;
29236;SDS011;16266;50.866;4.398;2024-01-15T08:13:31;1999.90;;;999.90;;
29236;SDS011;16266;50.866;4.398;2024-01-15T08:15:57;1999.90;;;999.90;;
29236;SDS011;16266;50.866;4.398;2024-01-15T08:18:23;1999.90;;;999.90;;
29236;SDS011;16266;50.866;4.398;2024-01-15T08:20:50;1999.90;;;999.90;;
29236;SDS011;16266;50.866;4.398;2024-01-15T08:23:17;1999.90;;;999.90;;
29236;SDS011;16266;50.866;4.398;2024-01-15T08:25:42;1999.90;;;999.90;;
29236;SDS011;16266;50.866;4.398;2024-01-15T08:28:08;1999.90;;;999.90;;
29236;SDS011;16266;50.866;4.398;2024-01-15T08:30:34;1999.90;;;999.90;;
29236;SDS011;16266;50.866;4.398;2024-01-15T08:32:59;1999.90;;;999.90;;
29236;SDS011;16266;50.866;4.398;2024-01-15T08:35:25;1999.90;;;999.90;;
29236;SDS011;16266;50.866;4.398;2024-01-15T08:37:52;1999.90;;;999.90;;
29236;SDS011;16266;50.866;4.398;2024-01-15T08:40:18;1999.90;;;999.90;;
29236;SDS011;16266;50.866;4.398;2024-01-15T08:42:44;1999.90;;;999.90;;
29236;SDS011;16266;50.866;4.398;2024-01-15T08:45:13;1999.90;;;999.90;;
29236;SDS011;16266;50.866;4.398;2024-01-15T08:47:39;1999.90;;;999.90;;
29236;SDS011;16266;50.866;4.398;2024-01-15T08:50:05;1999.90;;;999.90;;
29236;SDS011;16266;50.866;4.398;2024-01-15T08:52:34;1999.90;;;999.90;;
29236;SDS011;16266;50.866;4.398;2024-01-15T08:55:00;1999.90;;;999.90;;
29236;SDS011;16266;50.866;4.398;2024-01-15T08:57:26;1999.90;;;999.90;;
29236;SDS011;16266;50.866;4.398;2024-01-15T08:59:51;1999.90;;;999.90;;
29236;SDS011;16266;50.866;4.398;2024-01-15T09:02:17;1999.90;;;999.90;;
29236;SDS011;16266;50.866;4.398;2024-01-15T09:04:43;1999.90;;;999.90;;
29236;SDS011;16266;50.866;4.398;2024-01-15T09:07:08;1999.90;;;999.90;;
29236;SDS011;16266;50.866;4.398;2024-01-15T09:09:34;1999.90;;;999.90;;
29236;SDS011;16266;50.866;4.398;2024-01-15T09:12:00;1999.90;;;999.90;;
29236;SDS011;16266;50.866;4.398;2024-01-15T09:14:25;101.47;;;95.38;;
29236;SDS011;16266;50.866;4.398;2024-01-15T09:16:52;58.80;;;56.33;;
29236;SDS011;16266;50.866;4.398;2024-01-15T09:19:18;41.08;;;39.25;;
29236;SDS011;16266;50.866;4.398;2024-01-15T09:21:45;54.25;;;51.88;;
29236;SDS011;16266;50.866;4.398;2024-01-15T09:24:11;57.63;;;55.22;;
29236;SDS011;16266;50.866;4.398;2024-01-15T09:26:37;38.38;;;36.70;;
29236;SDS011;16266;50.866;4.398;2024-01-15T09:29:02;25.92;;;24.83;;
29236;SDS011;16266;50.866;4.398;2024-01-15T09:31:28;29.92;;;28.60;;
29236;SDS011;16266;50.866;4.398;2024-01-15T09:33:54;22.05;;;20.95;;
29236;SDS011;16266;50.866;4.398;2024-01-15T09:36:24;20.38;;;19.42;;
29236;SDS011;16266;50.866;4.398;2024-01-15T09:38:50;17.52;;;16.83;;
29236;SDS011;16266;50.866;4.398;2024-01-15T09:41:16;18.95;;;17.90;;
29236;SDS011;16266;50.866;4.398;2024-01-15T09:43:42;19.67;;;18.88;;
29236;SDS011;16266;50.866;4.398;2024-01-15T09:46:08;19.75;;;19.05;;
29236;SDS011;16266;50.866;4.398;2024-01-15T09:48:35;17.48;;;16.73;;
29236;SDS011;16266;50.866;4.398;2024-01-15T09:51:01;22.15;;;20.90;;
29236;SDS011;16266;50.866;4.398;2024-01-15T09:53:27;17.95;;;17.25;;
29236;SDS011;16266;50.866;4.398;2024-01-15T09:55:52;20.73;;;19.13;;
29236;SDS011;16266;50.866;4.398;2024-01-15T09:58:18;17.85;;;17.00;;
29236;SDS011;16266;50.866;4.398;2024-01-15T10:00:44;20.08;;;19.08;;
29236;SDS011;16266;50.866;4.398;2024-01-15T10:03:12;18.98;;;18.17;;
29236;SDS011;16266;50.866;4.398;2024-01-15T10:05:38;17.48;;;16.77;;
29236;SDS011;16266;50.866;4.398;2024-01-15T10:08:04;17.20;;;16.42;;
29236;SDS011;16266;50.866;4.398;2024-01-15T10:10:30;14.80;;;14.00;;
29236;SDS011;16266;50.866;4.398;2024-01-15T10:12:56;14.38;;;13.88;;
29236;SDS011;16266;50.866;4.398;2024-01-15T10:15:27;14.82;;;14.23;;
29236;SDS011;16266;50.866;4.398;2024-01-15T10:17:54;20.27;;;19.48;;
29236;SDS011;16266;50.866;4.398;2024-01-15T10:20:20;20.70;;;19.73;;
29236;SDS011;16266;50.866;4.398;2024-01-15T10:22:49;25.70;;;24.70;;
29236;SDS011;16266;50.866;4.398;2024-01-15T10:25:15;26.25;;;25.15;;
29236;SDS011;16266;50.866;4.398;2024-01-15T10:27:47;21.70;;;20.73;;
29236;SDS011;16266;50.866;4.398;2024-01-15T10:30:28;20.27;;;19.25;;
29236;SDS011;16266;50.866;4.398;2024-01-15T10:32:57;16.58;;;15.68;;
29236;SDS011;16266;50.866;4.398;2024-01-15T10:35:26;18.55;;;17.27;;
29236;SDS011;16266;50.866;4.398;2024-01-15T10:37:55;15.73;;;14.85;;
29236;SDS011;16266;50.866;4.398;2024-01-15T10:40:21;15.63;;;15.02;;
29236;SDS011;16266;50.866;4.398;2024-01-15T10:42:48;16.13;;;15.30;;
29236;SDS011;16266;50.866;4.398;2024-01-15T10:45:13;20.23;;;19.13;;
29236;SDS011;16266;50.866;4.398;2024-01-15T10:47:40;20.38;;;19.33;;
29236;SDS011;16266;50.866;4.398;2024-01-15T10:50:07;17.02;;;15.80;;
29236;SDS011;16266;50.866;4.398;2024-01-15T10:52:37;16.92;;;15.98;;
29236;SDS011;16266;50.866;4.398;2024-01-15T10:55:05;16.58;;;15.57;;
29236;SDS011;16266;50.866;4.398;2024-01-15T10:57:34;27.58;;;19.15;;
29236;SDS011;16266;50.866;4.398;2024-01-15T11:00:03;18.02;;;16.75;;
29236;SDS011;16266;50.866;4.398;2024-01-15T11:02:35;20.10;;;18.90;;
29236;SDS011;16266;50.866;4.398;2024-01-15T11:05:02;15.30;;;14.68;;
29236;SDS011;16266;50.866;4.398;2024-01-15T11:07:29;16.67;;;15.18;;
29236;SDS011;16266;50.866;4.398;2024-01-15T11:09:55;15.20;;;14.35;;
29236;SDS011;16266;50.866;4.398;2024-01-15T11:12:23;19.15;;;18.23;;
29236;SDS011;16266;50.866;4.398;2024-01-15T11:14:49;16.67;;;15.10;;
29236;SDS011;16266;50.866;4.398;2024-01-15T11:17:16;14.88;;;13.95;;
29236;SDS011;16266;50.866;4.398;2024-01-15T11:19:46;15.27;;;14.63;;
29236;SDS011;16266;50.866;4.398;2024-01-15T11:25:12;17.90;;;16.95;;
29236;SDS011;16266;50.866;4.398;2024-01-15T11:30:17;17.38;;;16.55;;
29236;SDS011;16266;50.866;4.398;2024-01-15T11:32:47;20.88;;;19.92;;
29236;SDS011;16266;50.866;4.398;2024-01-15T11:35:13;31.75;;;29.95;;
29236;SDS011;16266;50.866;4.398;2024-01-15T11:43:01;27.48;;;26.27;;
29236;SDS011;16266;50.866;4.398;2024-01-15T11:45:28;23.20;;;21.83;;
29236;SDS011;16266;50.866;4.398;2024-01-15T11:50:44;18.33;;;17.52;;
29236;SDS011;16266;50.866;4.398;2024-01-15T11:53:13;15.95;;;15.35;;
29236;SDS011;16266;50.866;4.398;2024-01-15T11:55:41;19.98;;;18.65;;
29236;SDS011;16266;50.866;4.398;2024-01-15T11:58:10;15.93;;;15.13;;
29236;SDS011;16266;50.866;4.398;2024-01-15T12:00:48;16.70;;;15.90;;
29236;SDS011;16266;50.866;4.398;2024-01-15T12:03:20;14.50;;;13.98;;
29236;SDS011;16266;50.866;4.398;2024-01-15T12:05:47;16.55;;;15.75;;
29236;SDS011;16266;50.866;4.398;2024-01-15T12:08:13;17.42;;;16.52;;
29236;SDS011;16266;50.866;4.398;2024-01-15T12:10:39;16.98;;;16.27;;
29236;SDS011;16266;50.866;4.398;2024-01-15T12:13:12;17.40;;;16.40;;
29236;SDS011;16266;50.866;4.398;2024-01-15T12:18:08;16.55;;;15.82;;
29236;SDS011;16266;50.866;4.398;2024-01-15T12:20:35;14.82;;;14.23;;
29236;SDS011;16266;50.866;4.398;2024-01-15T12:23:01;15.00;;;14.40;;
29236;SDS011;16266;50.866;4.398;2024-01-15T12:25:35;16.85;;;15.43;;
29236;SDS011;16266;50.866;4.398;2024-01-15T12:28:01;16.55;;;15.43;;
29236;SDS011;16266;50.866;4.398;2024-01-15T12:30:28;17.42;;;16.42;;
29236;SDS011;16266;50.866;4.398;2024-01-15T12:32:54;16.27;;;15.48;;
29236;SDS011;16266;50.866;4.398;2024-01-15T12:35:20;28.67;;;20.50;;
29236;SDS011;16266;50.866;4.398;2024-01-15T12:37:47;17.08;;;16.17;;
29236;SDS011;16266;50.866;4.398;2024-01-15T12:40:13;16.48;;;15.45;;
29236;SDS011;16266;50.866;4.398;2024-01-15T12:42:43;17.48;;;16.70;;
29236;SDS011;16266;50.866;4.398;2024-01-15T12:45:09;15.57;;;14.75;;
29236;SDS011;16266;50.866;4.398;2024-01-15T12:47:37;16.17;;;15.25;;
29236;SDS011;16266;50.866;4.398;2024-01-15T12:50:05;17.35;;;16.45;;
29236;SDS011;16266;50.866;4.398;2024-01-15T12:52:32;20.35;;;19.30;;
29236;SDS011;16266;50.866;4.398;2024-01-15T12:54:58;34.47;;;32.80;;
29236;SDS011;16266;50.866;4.398;2024-01-15T12:57:23;47.72;;;43.78;;
29236;SDS011;16266;50.866;4.398;2024-01-15T12:59:49;37.78;;;36.17;;
29236;SDS011;16266;50.866;4.398;2024-01-15T13:02:15;30.50;;;28.70;;
29236;SDS011;16266;50.866;4.398;2024-01-15T13:04:41;90.25;;;85.45;;
29236;SDS011;16266;50.866;4.398;2024-01-15T13:07:07;166.02;;;158.77;;
29236;SDS011;16266;50.866;4.398;2024-01-15T13:09:34;119.68;;;114.47;;
29236;SDS011;16266;50.866;4.398;2024-01-15T13:12:00;52.38;;;49.63;;
29236;SDS011;16266;50.866;4.398;2024-01-15T13:14:29;48.60;;;46.42;;
29236;SDS011;16266;50.866;4.398;2024-01-15T13:16:55;33.67;;;32.00;;
29236;SDS011;16266;50.866;4.398;2024-01-15T13:19:21;99.15;;;95.15;;
29236;SDS011;16266;50.866;4.398;2024-01-15T13:21:47;136.80;;;130.63;;
29236;SDS011;16266;50.866;4.398;2024-01-15T13:24:13;206.20;;;196.98;;
29236;SDS011;16266;50.866;4.398;2024-01-15T13:26:39;27.52;;;26.23;;
29236;SDS011;16266;50.866;4.398;2024-01-15T13:29:05;43.15;;;41.30;;
29236;SDS011;16266;50.866;4.398;2024-01-15T13:31:34;91.82;;;88.07;;
29236;SDS011;16266;50.866;4.398;2024-01-15T13:34:00;106.55;;;102.40;;
29236;SDS011;16266;50.866;4.398;2024-01-15T13:36:26;70.93;;;68.00;;
29236;SDS011;16266;50.866;4.398;2024-01-15T13:38:52;37.78;;;36.33;;
29236;SDS011;16266;50.866;4.398;2024-01-15T13:41:21;31.65;;;30.40;;
29236;SDS011;16266;50.866;4.398;2024-01-15T13:43:50;43.75;;;41.47;;
29236;SDS011;16266;50.866;4.398;2024-01-15T13:46:18;145.38;;;137.05;;
29236;SDS011;16266;50.866;4.398;2024-01-15T13:48:45;47.00;;;44.53;;
29236;SDS011;16266;50.866;4.398;2024-01-15T13:51:10;37.17;;;35.53;;
29236;SDS011;16266;50.866;4.398;2024-01-15T13:53:40;44.92;;;42.58;;
29236;SDS011;16266;50.866;4.398;2024-01-15T13:56:06;29.60;;;28.40;;
29236;SDS011;16266;50.866;4.398;2024-01-15T13:58:33;26.33;;;25.17;;
29236;SDS011;16266;50.866;4.398;2024-01-15T14:00:59;44.75;;;42.90;;
29236;SDS011;16266;50.866;4.398;2024-01-15T14:03:25;67.85;;;65.07;;
29236;SDS011;16266;50.866;4.398;2024-01-15T14:05:51;27.08;;;25.90;;
29236;SDS011;16266;50.866;4.398;2024-01-15T14:08:17;57.30;;;55.15;;
29236;SDS011;16266;50.866;4.398;2024-01-15T14:10:43;130.55;;;125.25;;
29236;SDS011;16266;50.866;4.398;2024-01-15T14:13:09;70.65;;;67.72;;
29236;SDS011;16266;50.866;4.398;2024-01-15T14:15:35;137.60;;;131.85;;